Time;durP1;ratioP1;P1;durP2;ratioP2;P2;SDS_P1;SDS_P2;PMS_P1;PMS_P2;Temp;Humidity;BMP_temperature;BMP_pressure;BME280_temperature;BME280_humidity;BME280_pressure;Samples;Min_cycle;Max_cycle;Signal;HPM_P1;HPM_P2
2024/03/19 00:01:12;;;;;;;4.87;4.27;;;;;;;-1.54;100.00;97888.59;6291312;28;20198;-51
2024/03/19 00:04:13;;;;;;;3.90;3.47;;;;;;;-1.66;100.00;97880.25;6308532;28;20232;-51
2024/03/19 00:07:14;;;;;;;4.80;3.87;;;;;;;-1.60;100.00;97885.66;6297369;28;20202;-50
2024/03/19 00:10:15;;;;;;;5.27;3.40;;;;;;;-1.31;99.09;97887.84;6294549;28;20185;-47
2024/03/19 00:13:16;;;;;;;3.83;3.20;;;;;;;-1.30;98.51;97880.81;6297749;28;20771;-48
2024/03/19 00:16:17;;;;;;;4.17;3.33;;;;;;;-1.61;100.00;97885.81;6296172;28;20192;-50
2024/03/19 00:19:18;;;;;;;4.40;3.30;;;;;;;-1.74;100.00;97888.88;6294790;28;20239;-47
2024/03/19 00:22:19;;;;;;;5.30;3.70;;;;;;;-1.73;100.00;97889.69;6280985;28;20733;-49
2024/03/19 00:25:21;;;;;;;3.73;3.30;;;;;;;-1.56;100.00;97892.19;6299422;28;20205;-50
2024/03/19 00:28:22;;;;;;;4.13;3.73;;;;;;;-1.77;100.00;97893.59;6293414;28;20721;-53
2024/03/19 00:31:23;;;;;;;6.30;3.80;;;;;;;-1.92;100.00;97899.44;6276696;28;20681;-50
2024/03/19 00:34:25;;;;;;;4.57;3.87;;;;;;;-1.72;100.00;97892.16;6296112;28;20535;-47
2024/03/19 00:37:27;;;;;;;6.37;4.20;;;;;;;-1.76;100.00;97896.06;6293981;28;20194;-51
2024/03/19 00:40:28;;;;;;;5.87;3.97;;;;;;;-1.84;100.00;97888.19;6293385;28;20275;-51
2024/03/19 00:43:29;;;;;;;5.23;3.87;;;;;;;-2.02;100.00;97890.91;6302253;28;20288;-50
2024/03/19 00:46:33;;;;;;;5.03;3.87;;;;;;;-2.06;100.00;97894.00;6308078;28;20188;-52
2024/03/19 00:49:34;;;;;;;6.63;4.23;;;;;;;-2.13;100.00;97888.56;6301361;28;20198;-48
2024/03/19 00:52:35;;;;;;;6.63;4.77;;;;;;;-2.04;100.00;97892.03;6280416;28;20182;-51
2024/03/19 00:55:36;;;;;;;4.53;4.13;;;;;;;-2.18;100.00;97903.88;6317667;28;20584;-50
2024/03/19 00:58:37;;;;;;;6.27;4.80;;;;;;;-2.27;100.00;97873.50;6301028;28;20189;-53
2024/03/19 01:01:38;;;;;;;6.17;4.33;;;;;;;-2.13;100.00;97899.00;6303478;28;20289;-51
2024/03/19 01:04:40;;;;;;;5.43;4.27;;;;;;;-2.18;100.00;97886.41;6300954;28;20646;-50
2024/03/19 01:07:42;;;;;;;6.20;4.53;;;;;;;-2.23;100.00;97887.88;6306337;28;20197;-52
2024/03/19 01:10:43;;;;;;;6.53;4.70;;;;;;;-2.01;100.00;97891.72;6312092;28;20665;-51
2024/03/19 01:13:44;;;;;;;5.63;4.53;;;;;;;-2.21;100.00;97896.38;6301406;28;20181;-48
2024/03/19 01:16:45;;;;;;;6.37;4.53;;;;;;;-2.17;100.00;97895.06;6307544;28;20206;-52
2024/03/19 01:19:46;;;;;;;7.67;6.40;;;;;;;-2.30;100.00;97892.09;6300221;28;20604;-51
2024/03/19 01:22:47;;;;;;;7.40;4.87;;;;;;;-2.30;100.00;97892.09;6310127;28;20196;-51
2024/03/19 01:25:48;;;;;;;6.87;5.40;;;;;;;-2.36;100.00;97889.13;6305829;28;20201;-50
2024/03/19 01:28:49;;;;;;;5.90;4.90;;;;;;;-2.54;100.00;97862.28;6303486;28;20196;-49
2024/03/19 01:31:50;;;;;;;6.67;4.70;;;;;;;-2.25;100.00;97888.03;6318279;28;20195;-48
2024/03/19 01:34:51;;;;;;;9.40;5.07;;;;;;;-2.31;100.00;97899.09;6304232;28;20192;-51
2024/03/19 01:37:52;;;;;;;8.60;4.30;;;;;;;-2.04;100.00;97908.50;6307678;28;20188;-49
2024/03/19 01:40:53;;;;;;;5.37;4.20;;;;;;;-2.16;100.00;97899.34;6300445;28;20246;-51
2024/03/19 01:43:54;;;;;;;6.57;4.90;;;;;;;-2.34;100.00;97902.00;6315453;28;20237;-48
2024/03/19 01:46:56;;;;;;;6.23;4.67;;;;;;;-2.02;100.00;97903.97;6303470;28;20193;-51
2024/03/19 01:49:57;;;;;;;7.83;4.77;;;;;;;-2.30;100.00;97912.97;6323126;28;20680;-51
2024/03/19 01:52:59;;;;;;;7.27;5.03;;;;;;;-2.36;100.00;97910.00;6286424;28;20185;-50
2024/03/19 01:56:00;;;;;;;6.53;5.10;;;;;;;-2.12;100.00;97903.25;6300832;28;20200;-50
2024/03/19 01:59:01;;;;;;;7.70;5.00;;;;;;;-2.27;100.00;97905.63;6316063;28;20186;-48
2024/03/19 02:02:02;;;;;;;5.07;4.43;;;;;;;-2.39;100.00;97907.69;6300115;28;20194;-50
2024/03/19 02:05:05;;;;;;;7.00;4.80;;;;;;;-2.47;100.00;97876.31;6306648;28;20201;-50
2024/03/19 02:08:07;;;;;;;6.03;4.83;;;;;;;-2.19;100.00;97894.41;6301541;28;20201;-52
2024/03/19 02:11:09;;;;;;;8.23;5.33;;;;;;;-2.38;100.00;97891.03;6301576;28;20277;-50
2024/03/19 02:14:10;;;;;;;7.00;5.40;;;;;;;-2.36;100.00;97902.16;6299632;28;20186;-49
2024/03/19 02:17:11;;;;;;;6.07;4.87;;;;;;;-2.29;100.00;97907.56;6300559;28;20186;-49
2024/03/19 02:20:12;;;;;;;6.90;5.37;;;;;;;-2.34;100.00;97905.44;6300240;28;20978;-48
2024/03/19 02:23:13;;;;;;;7.20;5.50;;;;;;;-2.37;100.00;97910.94;6299102;28;20209;-50
2024/03/19 02:26:14;;;;;;;7.40;5.27;;;;;;;-2.41;100.00;97909.63;6315766;28;20829;-51
2024/03/19 02:29:15;;;;;;;6.97;5.23;;;;;;;-2.41;100.00;97911.44;6316396;28;20207;-50
2024/03/19 02:32:17;;;;;;;6.77;4.97;;;;;;;-2.39;100.00;97910.28;6305549;28;20224;-48
2024/03/19 02:35:18;;;;;;;7.10;5.10;;;;;;;-2.31;100.00;97906.09;6282419;28;20749;-51
2024/03/19 02:38:19;;;;;;;7.53;5.50;;;;;;;-2.41;100.00;97909.63;6315804;28;20200;-47
2024/03/19 02:41:20;;;;;;;7.87;5.33;;;;;;;-2.42;100.00;97920.19;6306724;28;20193;-48
2024/03/19 02:44:21;;;;;;;8.60;5.60;;;;;;;-2.42;100.00;97920.19;6306007;28;20264;-50
2024/03/19 02:47:22;;;;;;;7.27;6.00;;;;;;;-2.43;100.00;97929.81;6301351;28;20240;-48
2024/03/19 02:50:23;;;;;;;9.27;5.70;;;;;;;-2.42;100.00;97931.44;6318650;28;20233;-55
2024/03/19 02:53:26;;;;;;;5.83;5.23;;;;;;;-2.41;100.00;97938.34;6311842;28;20197;-50
2024/03/19 02:56:27;;;;;;;9.63;5.10;;;;;;;-2.47;100.00;97931.09;6317252;28;20531;-51
2024/03/19 02:59:28;;;;;;;8.17;5.80;;;;;;;-2.39;100.00;97938.97;6303603;28;20193;-48
2024/03/19 03:02:29;;;;;;;5.90;5.03;;;;;;;-2.40;100.00;97947.78;6304519;28;20219;-50
2024/03/19 03:05:30;;;;;;;6.87;5.57;;;;;;;-2.43;100.00;97944.66;6303371;28;20576;-51
2024/03/19 03:08:31;;;;;;;6.87;4.83;;;;;;;-2.44;100.00;97943.03;6302205;28;20213;-50
2024/03/19 03:11:32;;;;;;;5.60;4.70;;;;;;;-2.40;100.00;97946.97;6320681;28;20276;-52
2024/03/19 03:14:33;;;;;;;6.40;5.27;;;;;;;-2.43;100.00;97957.69;6304610;28;20537;-51
2024/03/19 03:17:36;;;;;;;6.87;5.07;;;;;;;-2.48;100.00;97950.34;6337969;28;20189;-49
2024/03/19 03:20:38;;;;;;;6.73;5.00;;;;;;;-2.61;100.00;97921.25;6320339;28;20194;-49
2024/03/19 03:23:39;;;;;;;8.20;5.87;;;;;;;-2.48;100.00;97958.16;6289605;28;20217;-48
2024/03/19 03:26:40;;;;;;;6.30;5.50;;;;;;;-2.63;100.00;97939.63;6322992;28;20189;-48
2024/03/19 03:29:41;;;;;;;6.13;5.27;;;;;;;-2.71;100.00;97930.94;6327547;28;20189;-51
2024/03/19 03:32:45;;;;;;;7.67;5.50;;;;;;;-2.67;100.00;97943.50;6312931;28;20204;-52
2024/03/19 03:35:47;;;;;;;11.63;7.57;;;;;;;-2.60;100.00;97962.00;6307477;28;20189;-51
2024/03/19 03:38:48;;;;;;;7.77;6.30;;;;;;;-2.72;100.00;97971.00;6307643;28;20209;-51
2024/03/19 03:41:49;;;;;;;7.63;5.63;;;;;;;-2.59;100.00;97971.44;6319658;28;20194;-47
2024/03/19 03:44:50;;;;;;;7.33;6.07;;;;;;;-2.70;100.00;97979.53;6302721;28;20229;-49
2024/03/19 03:47:51;;;;;;;6.70;5.53;;;;;;;-2.47;100.00;97979.84;6319007;28;20624;-50
2024/03/19 03:50:52;;;;;;;9.60;5.77;;;;;;;-2.64;100.00;97973.69;6324600;28;20640;-49
2024/03/19 03:53:53;;;;;;;7.23;5.27;;;;;;;-2.72;100.00;97976.22;6309933;28;20566;-50
2024/03/19 03:56:54;;;;;;;10.20;6.57;;;;;;;-2.76;100.00;97980.09;6306921;28;20186;-52
2024/03/19 03:59:55;;;;;;;8.13;6.40;;;;;;;-2.78;100.00;97982.03;6313735;28;20605;-50
2024/03/19 04:02:56;;;;;;;7.60;5.77;;;;;;;-2.83;100.00;97979.06;6310994;28;20227;-50
2024/03/19 04:05:57;;;;;;;7.90;5.80;;;;;;;-2.90;100.00;97978.84;6305404;28;20193;-53
2024/03/19 04:08:59;;;;;;;8.50;6.53;;;;;;;-2.89;100.00;97989.13;6299839;28;20203;-49
2024/03/19 04:12:00;;;;;;;7.43;6.43;;;;;;;-2.95;100.00;97989.72;6331950;28;20190;-51
2024/03/19 04:15:01;;;;;;;9.00;6.57;;;;;;;-2.81;100.00;97990.97;6312453;28;20189;-50
2024/03/19 04:18:03;;;;;;;7.80;6.13;;;;;;;-2.96;100.00;97988.06;6320964;28;20259;-49
2024/03/19 04:21:04;;;;;;;7.00;5.53;;;;;;;-2.99;100.00;97993.59;6302068;28;20220;-50
2024/03/19 04:24:05;;;;;;;7.73;6.50;;;;;;;-3.13;100.00;97968.88;6301520;28;20217;-52
2024/03/19 04:27:06;;;;;;;9.07;6.60;;;;;;;-3.00;100.00;97993.75;6318712;28;20185;-50
2024/03/19 04:30:08;;;;;;;8.47;6.67;;;;;;;-3.02;100.00;97999.09;6305650;28;20198;-50
2024/03/19 04:33:09;;;;;;;7.93;5.97;;;;;;;-2.78;100.00;98008.94;6320141;28;20200;-51
2024/03/19 04:36:10;;;;;;;8.40;5.93;;;;;;;-2.97;100.00;98006.47;6318088;28;20193;-49
2024/03/19 04:39:17;;;;;;;11.40;8.23;;;;;;;-3.17;100.00;97997.97;6300071;28;20189;-49
2024/03/19 04:42:19;;;;;;;10.50;7.57;;;;;;;-3.14;100.00;98011.53;6301473;28;20197;-48
2024/03/19 04:45:20;;;;;;;9.83;7.90;;;;;;;-3.16;100.00;98017.84;6301894;28;20226;-49
2024/03/19 04:48:21;;;;;;;9.13;7.07;;;;;;;-3.13;100.00;98004.53;6308494;28;20193;-48
2024/03/19 04:51:23;;;;;;;8.77;6.83;;;;;;;-3.32;100.00;97989.84;6302166;28;20204;-49
2024/03/19 04:54:25;;;;;;;12.70;6.90;;;;;;;-2.88;100.00;98029.03;6323376;28;20192;-49
2024/03/19 04:57:26;;;;;;;10.17;7.40;;;;;;;-3.12;100.00;98032.22;6306022;28;20204;-49
2024/03/19 05:00:27;;;;;;;11.40;8.37;;;;;;;-3.14;100.00;98041.97;6304827;28;20201;-47
2024/03/19 05:03:28;;;;;;;13.23;8.77;;;;;;;-3.28;100.00;98038.06;6314848;28;20216;-48
2024/03/19 05:06:29;;;;;;;13.03;8.63;;;;;;;-3.30;100.00;98023.53;6327305;28;20287;-50
2024/03/19 05:09:30;;;;;;;10.67;7.93;;;;;;;-3.20;100.00;98043.38;6326843;28;20176;-48
2024/03/19 05:12:31;;;;;;;11.80;7.80;;;;;;;-3.21;100.00;98043.50;6318003;28;20191;-51
2024/03/19 05:15:32;;;;;;;11.63;8.27;;;;;;;-3.03;100.00;98033.94;6300208;28;20231;-51
2024/03/19 05:18:33;;;;;;;11.07;8.47;;;;;;;-3.16;100.00;98051.72;6318034;28;20220;-47
2024/03/19 05:21:34;;;;;;;10.90;7.83;;;;;;;-3.29;100.00;98062.50;6325395;28;20196;-50
2024/03/19 05:24:35;;;;;;;9.67;7.97;;;;;;;-3.31;100.00;98060.97;6320319;28;20212;-50
2024/03/19 05:27:38;;;;;;;12.00;8.33;;;;;;;-3.32;100.00;98078.41;6327216;28;20234;-52
2024/03/19 05:30:39;;;;;;;11.43;8.77;;;;;;;-3.49;100.00;98042.72;6307080;28;20189;-51
2024/03/19 05:33:40;;;;;;;12.47;8.40;;;;;;;-3.22;100.00;98070.53;6312046;28;20979;-51
2024/03/19 05:36:41;;;;;;;14.03;8.87;;;;;;;-3.27;100.00;98072.75;6322891;28;20186;-51
2024/03/19 05:39:42;;;;;;;13.43;8.80;;;;;;;-2.84;100.00;98079.91;6300031;28;20251;-52
2024/03/19 05:42:44;;;;;;;11.53;8.73;;;;;;;-3.08;100.00;98083.06;6319358;28;20190;-50
2024/03/19 05:45:45;;;;;;;11.13;9.03;;;;;;;-3.26;100.00;98070.00;6304075;28;20234;-52
2024/03/19 05:48:46;;;;;;;16.23;9.50;;;;;;;-3.27;100.00;98091.00;6295290;28;20205;-52
2024/03/19 05:51:48;;;;;;;11.40;8.70;;;;;;;-3.00;100.00;98088.41;6291511;28;20190;-51
2024/03/19 05:54:51;;;;;;;9.93;8.10;;;;;;;-2.61;100.00;98086.34;6291283;28;20186;-47
2024/03/19 05:57:54;;;;;;;11.50;8.13;;;;;;;-2.87;100.00;98093.25;6292360;28;20813;-49
2024/03/19 06:00:56;;;;;;;12.30;8.77;;;;;;;-3.11;100.00;98086.78;6291047;28;20646;-51
2024/03/19 06:03:57;;;;;;;13.63;8.70;;;;;;;-3.09;100.00;98085.84;6288418;28;20751;-50
2024/03/19 06:06:58;;;;;;;12.40;8.63;;;;;;;-3.07;100.00;98096.94;6295570;28;20202;-52
2024/03/19 06:09:59;;;;;;;10.57;7.97;;;;;;;-3.07;100.00;98095.13;6288649;28;20209;-51
2024/03/19 06:13:00;;;;;;;13.73;8.87;;;;;;;-3.04;100.00;98100.06;6274391;28;20193;-49
2024/03/19 06:16:02;;;;;;;12.37;8.80;;;;;;;-3.08;100.00;98092.69;6293205;28;20186;-50
2024/03/19 06:19:03;;;;;;;11.43;8.70;;;;;;;-2.97;100.00;98103.72;6291839;28;20830;-50
2024/03/19 06:22:04;;;;;;;12.37;8.93;;;;;;;-2.93;100.00;98099.88;6288871;28;21119;-47
2024/03/19 06:25:06;;;;;;;11.60;8.67;;;;;;;-2.88;100.00;98102.84;6290474;28;20202;-49
2024/03/19 06:28:07;;;;;;;15.40;9.17;;;;;;;-2.95;100.00;98090.56;6290476;28;20324;-50
2024/03/19 06:31:08;;;;;;;12.43;9.07;;;;;;;-2.41;100.00;98112.28;6290624;28;20688;-50
2024/03/19 06:34:09;;;;;;;12.87;9.33;;;;;;;-2.65;100.00;98118.09;6290831;28;20193;-50
2024/03/19 06:37:11;;;;;;;12.67;8.43;;;;;;;-2.68;100.00;98123.59;6296164;28;20768;-49
2024/03/19 06:40:13;;;;;;;12.13;8.47;;;;;;;-2.33;100.00;98115.78;6295990;28;20661;-49
2024/03/19 06:43:15;;;;;;;12.17;9.07;;;;;;;-2.49;100.00;98136.50;6293593;28;20206;-48
2024/03/19 06:46:16;;;;;;;11.43;8.00;;;;;;;-2.54;100.00;98128.31;6290279;28;20578;-51
2024/03/19 06:49:17;;;;;;;12.57;8.43;;;;;;;-2.47;100.00;98126.72;6306045;28;20189;-52
2024/03/19 06:52:18;;;;;;;13.23;8.73;;;;;;;-2.22;100.00;98121.72;6297150;28;20566;-51
2024/03/19 06:55:22;;;;;;;15.43;9.07;;;;;;;-2.10;100.00;98137.03;6295222;28;20229;-52
2024/03/19 06:58:23;;;;;;;13.67;9.03;;;;;;;-2.38;100.00;98112.78;6298257;28;20371;-51
2024/03/19 07:01:24;;;;;;;13.53;9.87;;;;;;;-2.16;100.00;98139.44;6295489;28;20204;-50
2024/03/19 07:04:29;;;;;;;13.73;8.93;;;;;;;-2.11;100.00;98138.00;6297713;28;20201;-49
2024/03/19 07:07:30;;;;;;;14.33;10.70;;;;;;;-2.02;100.00;98132.81;6255170;28;20221;-51
2024/03/19 07:10:31;;;;;;;15.70;10.10;;;;;;;-1.99;100.00;98135.97;6286865;28;20205;-51
2024/03/19 07:13:35;;;;;;;14.90;9.77;;;;;;;-1.92;100.00;98130.94;6301856;28;20700;-50
2024/03/19 07:16:36;;;;;;;14.07;11.03;;;;;;;-1.74;100.00;98141.38;6295894;28;20190;-48
2024/03/19 07:19:37;;;;;;;15.87;10.33;;;;;;;-1.74;100.00;98136.97;6277291;28;20196;-47
2024/03/19 07:22:40;;;;;;;12.50;9.40;;;;;;;-1.53;100.00;98139.22;6293425;28;20202;-50
2024/03/19 07:25:42;;;;;;;13.90;10.63;;;;;;;-1.38;100.00;98152.53;6290037;28;20205;-48
2024/03/19 07:28:44;;;;;;;15.47;10.50;;;;;;;-1.30;100.00;98150.78;6294707;28;20199;-50
2024/03/19 07:31:45;;;;;;;18.33;11.17;;;;;;;-1.07;100.00;98160.72;6296272;28;20201;-51
2024/03/19 07:34:46;;;;;;;13.90;10.53;;;;;;;-0.90;100.00;98156.38;6294111;28;20186;-49
2024/03/19 07:37:49;;;;;;;15.43;11.53;;;;;;;-0.74;100.00;98156.44;6290149;28;20762;-52
2024/03/19 07:40:50;;;;;;;18.23;10.83;;;;;;;-0.52;100.00;98162.88;6289826;28;20199;-49
2024/03/19 07:43:52;;;;;;;16.10;11.33;;;;;;;-0.16;100.00;98154.78;6297406;28;20226;-51
2024/03/19 07:46:53;;;;;;;14.47;10.97;;;;;;;0.30;100.00;98155.94;6307944;28;20247;-50
2024/03/19 07:49:54;;;;;;;15.07;11.00;;;;;;;0.90;97.95;98157.31;6304853;28;20194;-52
2024/03/19 07:52:55;;;;;;;14.50;9.67;;;;;;;1.72;81.45;98158.56;6301839;28;20191;-53
2024/03/19 07:55:56;;;;;;;12.43;8.70;;;;;;;1.94;79.83;98153.53;6303069;28;20194;-49
2024/03/19 07:58:57;;;;;;;13.20;9.57;;;;;;;2.28;69.07;98151.28;6312135;28;20190;-51
2024/03/19 08:01:58;;;;;;;12.37;9.13;;;;;;;2.50;75.20;98164.56;6304848;28;20191;-53
2024/03/19 08:04:59;;;;;;;9.90;7.37;;;;;;;2.63;64.09;98162.13;6325765;28;20207;-53
2024/03/19 08:08:02;;;;;;;8.50;6.70;;;;;;;3.04;60.43;98164.34;6327827;28;20211;-53
2024/03/19 08:11:04;;;;;;;6.13;4.53;;;;;;;3.32;58.58;98156.63;6328580;28;20275;-52
2024/03/19 08:14:05;;;;;;;8.33;5.80;;;;;;;3.78;58.00;98175.59;6282937;28;20599;-53
2024/03/19 08:17:07;;;;;;;5.03;4.40;;;;;;;3.81;51.57;98180.50;6301865;28;20194;-58
2024/03/19 08:20:12;;;;;;;5.27;4.47;;;;;;;3.88;50.67;98180.56;6304459;28;20197;-50
2024/03/19 08:23:15;;;;;;;6.83;5.13;;;;;;;4.02;50.78;98182.31;6286486;28;20209;-53
2024/03/19 08:26:16;;;;;;;7.77;5.50;;;;;;;4.11;50.28;98178.56;6328491;28;20573;-51
2024/03/19 08:29:17;;;;;;;8.50;5.40;;;;;;;4.26;51.03;98175.88;6306252;28;20565;-51
2024/03/19 08:32:18;;;;;;;7.70;5.60;;;;;;;4.61;51.42;98179.41;6308417;28;20558;-52
2024/03/19 08:35:20;;;;;;;7.83;6.30;;;;;;;4.73;50.35;98178.88;6316000;28;20190;-54
2024/03/19 08:38:21;;;;;;;8.17;6.27;;;;;;;4.79;50.80;98184.22;6326867;28;20189;-52
2024/03/19 08:41:22;;;;;;;7.63;6.40;;;;;;;4.97;48.86;98172.34;6304562;28;20596;-52
2024/03/19 08:44:23;;;;;;;8.70;7.10;;;;;;;5.10;49.31;98188.28;6302603;28;20222;-52
2024/03/19 08:47:24;;;;;;;8.77;6.73;;;;;;;4.96;48.46;98189.19;6301358;28;20544;-52
2024/03/19 08:50:26;;;;;;;6.30;5.30;;;;;;;5.27;47.96;98183.47;6318176;28;20269;-52
2024/03/19 08:53:27;;;;;;;7.23;6.40;;;;;;;4.97;47.70;98202.19;6302037;28;20177;-53
2024/03/19 08:56:28;;;;;;;10.07;7.20;;;;;;;5.03;47.40;98195.34;6317970;28;20268;-53
2024/03/19 08:59:29;;;;;;;11.03;7.77;;;;;;;5.00;48.52;98180.69;6317392;28;20662;-52
2024/03/19 09:02:30;;;;;;;8.07;6.57;;;;;;;5.51;47.68;98208.59;6301086;28;20289;-53
2024/03/19 09:05:31;;;;;;;10.53;6.93;;;;;;;5.58;46.69;98197.06;6317601;28;20210;-54
2024/03/19 09:08:32;;;;;;;9.70;7.40;;;;;;;5.14;46.50;98182.41;6299659;28;20199;-52
2024/03/19 09:11:36;;;;;;;8.03;6.67;;;;;;;5.24;46.43;98207.66;6304027;28;20200;-52
2024/03/19 09:14:37;;;;;;;10.00;8.47;;;;;;;5.42;47.86;98206.13;6330529;28;20645;-54
2024/03/19 09:17:39;;;;;;;12.60;8.67;;;;;;;5.51;48.94;98209.41;6302022;28;20206;-51
2024/03/19 09:20:41;;;;;;;12.57;8.93;;;;;;;5.96;48.00;98209.84;6300020;28;20550;-55
2024/03/19 09:23:42;;;;;;;11.10;8.83;;;;;;;5.45;47.44;98215.47;6313871;28;20260;-53
2024/03/19 09:26:43;;;;;;;11.57;8.50;;;;;;;5.47;47.39;98205.56;6309018;28;20294;-54
2024/03/19 09:29:44;;;;;;;9.03;7.70;;;;;;;5.86;46.17;98212.84;6300427;28;20230;-51
2024/03/19 09:32:45;;;;;;;9.50;6.90;;;;;;;5.81;45.57;98206.47;6286201;28;20241;-51
2024/03/19 09:35:46;;;;;;;11.03;7.60;;;;;;;5.18;46.61;98211.91;6300707;28;20196;-53
2024/03/19 09:38:50;;;;;;;8.40;6.97;;;;;;;5.51;47.63;98214.69;6317397;28;20202;-53
2024/03/19 09:42:10;;;;;;;10.10;7.33;;;;;;;5.53;46.10;98196.84;6295711;28;20215;-53
2024/03/19 09:45:22;;;;;;;8.87;6.70;;;;;;;5.94;45.94;98212.66;6302555;28;20240;-52
2024/03/19 09:48:25;;;;;;;8.33;7.47;;;;;;;6.49;46.10;98227.63;6300710;28;20198;-54
2024/03/19 09:51:26;;;;;;;10.33;8.00;;;;;;;6.31;44.89;98222.94;6314997;28;20319;-53
2024/03/19 09:54:29;;;;;;;11.43;7.60;;;;;;;6.33;47.16;98228.84;6304924;28;20202;-55
2024/03/19 09:57:31;;;;;;;10.90;7.90;;;;;;;6.55;46.19;98227.66;6302159;28;20718;-53
2024/03/19 10:00:32;;;;;;;9.13;7.03;;;;;;;6.29;45.89;98222.31;6319097;28;20189;-52
2024/03/19 10:03:33;;;;;;;9.43;7.57;;;;;;;6.19;44.80;98222.69;6326567;28;20211;-52
2024/03/19 10:06:34;;;;;;;8.83;6.87;;;;;;;6.38;44.86;98192.81;6298748;28;20207;-52
2024/03/19 10:09:35;;;;;;;7.50;6.30;;;;;;;6.37;44.66;98214.19;6304920;28;20602;-50
2024/03/19 10:12:36;;;;;;;8.20;6.80;;;;;;;6.54;44.08;98211.97;6305551;28;20200;-52
2024/03/19 10:15:37;;;;;;;8.40;6.37;;;;;;;6.43;43.75;98190.38;6299369;28;20641;-51
2024/03/19 10:18:38;;;;;;;8.83;6.20;;;;;;;6.90;44.30;98200.97;6326958;28;20195;-53
2024/03/19 10:21:40;;;;;;;10.40;6.80;;;;;;;6.94;42.83;98196.88;6322848;28;20245;-52
2024/03/19 10:24:46;;;;;;;9.37;6.93;;;;;;;7.04;42.96;98191.16;6304255;28;20757;-52
2024/03/19 10:27:48;;;;;;;7.80;7.00;;;;;;;6.79;43.36;98197.09;6296265;28;20178;-53
2024/03/19 10:30:50;;;;;;;8.23;6.90;;;;;;;6.81;43.58;98189.78;6315901;28;20569;-55
2024/03/19 10:33:57;;;;;;;7.30;6.43;;;;;;;7.10;43.18;98200.94;6308199;28;20187;-54
2024/03/19 10:36:59;;;;;;;10.80;6.57;;;;;;;6.73;43.82;98187.31;6306851;28;20198;-55
2024/03/19 10:40:02;;;;;;;7.30;6.53;;;;;;;6.90;44.01;98199.16;6317151;28;20201;-52
2024/03/19 10:43:04;;;;;;;6.80;5.93;;;;;;;7.01;43.37;98189.75;6315663;28;20194;-53
2024/03/19 10:46:05;;;;;;;7.87;6.20;;;;;;;7.08;43.00;98189.72;6319622;28;20568;-56
2024/03/19 10:49:06;;;;;;;8.97;6.57;;;;;;;7.16;42.85;98189.53;6301319;28;20184;-52
2024/03/19 10:52:20;;;;;;;8.20;6.83;;;;;;;7.58;43.03;98190.00;6301815;28;20545;-55
2024/03/19 10:55:22;;;;;;;8.40;7.13;;;;;;;7.89;41.53;98181.31;6315686;28;20660;-52
2024/03/19 10:58:23;;;;;;;8.50;6.60;;;;;;;7.69;42.73;98162.84;6322238;28;20200;-54
2024/03/19 11:01:25;;;;;;;6.93;6.07;;;;;;;7.32;43.33;98173.16;6299039;28;20189;-52
2024/03/19 11:04:31;;;;;;;7.73;6.23;;;;;;;7.54;44.85;98172.88;6317862;28;20239;-53
2024/03/19 11:07:32;;;;;;;8.60;6.57;;;;;;;7.37;43.18;98183.16;6282345;28;20194;-54
2024/03/19 11:10:36;;;;;;;10.07;8.20;;;;;;;7.35;44.44;98174.59;6321710;28;20216;-53
2024/03/19 11:13:37;;;;;;;9.47;7.20;;;;;;;7.28;44.58;98179.09;6321559;28;20200;-54
2024/03/19 11:16:38;;;;;;;10.27;7.87;;;;;;;6.72;46.22;98177.75;6303861;28;20243;-53
2024/03/19 11:19:39;;;;;;;9.50;7.87;;;;;;;6.78;46.52;98182.22;6300036;28;20713;-51
2024/03/19 11:22:41;;;;;;;9.50;7.90;;;;;;;6.74;45.77;98178.34;6322186;28;20193;-52
2024/03/19 11:25:42;;;;;;;10.30;7.27;;;;;;;6.70;46.48;98174.50;6318449;28;20212;-51
2024/03/19 11:28:59;;;;;;;11.40;8.30;;;;;;;6.78;46.71;98170.81;6329017;28;20208;-51
2024/03/19 11:32:01;;;;;;;10.80;8.60;;;;;;;6.70;46.69;98169.22;6305692;28;20198;-52
2024/03/19 11:35:08;;;;;;;9.10;7.37;;;;;;;6.70;46.43;98172.69;6330838;28;20191;-55
2024/03/19 11:38:13;;;;;;;11.37;8.17;;;;;;;6.79;45.29;98175.91;6286389;28;20195;-55
2024/03/19 11:41:14;;;;;;;11.10;7.80;;;;;;;6.77;46.25;98177.97;6319659;28;20208;-53
2024/03/19 11:44:19;;;;;;;9.63;7.60;;;;;;;7.07;45.23;98169.56;6303649;28;20267;-55
2024/03/19 11:47:20;;;;;;;10.17;7.77;;;;;;;7.05;45.72;98167.13;6325331;28;20190;-52
2024/03/19 11:50:22;;;;;;;9.50;7.33;;;;;;;7.11;45.87;98173.44;6335758;28;20185;-54
2024/03/19 11:53:24;;;;;;;9.67;8.00;;;;;;;7.20;45.50;98161.59;6288250;28;20193;-56
2024/03/19 11:56:25;;;;;;;12.43;7.10;;;;;;;7.22;45.60;98159.53;6302301;28;20683;-55
2024/03/19 11:59:28;;;;;;;10.83;7.90;;;;;;;7.48;45.92;98161.28;6302458;28;20710;-54
2024/03/19 12:02:29;;;;;;;14.10;8.00;;;;;;;7.65;45.55;98158.97;6319254;28;20585;-54
2024/03/19 12:05:30;;;;;;;10.57;8.73;;;;;;;7.31;45.08;98160.13;6302018;28;20213;-54
2024/03/19 12:08:32;;;;;;;13.53;8.50;;;;;;;7.26;45.94;98146.69;6327873;28;20201;-54
2024/03/19 12:11:35;;;;;;;10.97;7.90;;;;;;;7.15;45.73;98148.16;6303554;28;20201;-53
2024/03/19 12:14:36;;;;;;;12.37;8.30;;;;;;;7.29;45.22;98152.41;6322076;28;20194;-55
2024/03/19 12:17:37;;;;;;;10.37;7.83;;;;;;;7.33;45.84;98147.47;6314467;28;20196;-54
2024/03/19 12:20:39;;;;;;;11.30;8.03;;;;;;;7.44;45.43;98138.88;6329088;28;20199;-56
2024/03/19 12:23:40;;;;;;;10.10;8.30;;;;;;;7.49;45.18;98121.31;6304086;28;20213;-53
2024/03/19 12:26:46;;;;;;;10.07;8.50;;;;;;;7.86;44.32;98129.47;6318667;28;20194;-54
2024/03/19 12:29:47;;;;;;;9.63;8.10;;;;;;;7.76;45.41;98129.13;6320609;28;20185;-56
2024/03/19 12:33:13;;;;;;;10.57;8.77;;;;;;;7.52;45.15;98128.03;6306867;28;20200;-53
2024/03/19 12:36:14;;;;;;;11.20;8.13;;;;;;;7.71;45.72;98132.44;6306549;28;20189;-54
2024/03/19 12:39:15;;;;;;;11.70;8.33;;;;;;;7.72;44.75;98125.28;6319255;28;20254;-53
2024/03/19 12:42:17;;;;;;;13.60;8.47;;;;;;;7.95;45.60;98127.41;6301228;28;20284;-55
2024/03/19 12:45:19;;;;;;;9.40;7.53;;;;;;;8.16;44.87;98128.88;6319704;28;20713;-54
2024/03/19 12:48:20;;;;;;;10.63;7.70;;;;;;;8.00;44.17;98125.72;6310619;28;20230;-53
2024/03/19 12:51:21;;;;;;;9.67;8.60;;;;;;;8.13;43.96;98129.34;6306211;28;20203;-53
2024/03/19 12:54:25;;;;;;;11.27;8.63;;;;;;;7.71;44.90;98097.13;6305498;28;20194;-55
2024/03/19 12:57:26;;;;;;;12.70;8.63;;;;;;;7.86;44.66;98118.88;6293743;28;20189;-54
2024/03/19 13:00:27;;;;;;;11.80;8.90;;;;;;;7.82;45.13;98116.88;6306964;28;20189;-54
2024/03/19 13:03:28;;;;;;;10.80;7.97;;;;;;;7.67;44.13;98117.97;6301757;28;20687;-53
2024/03/19 13:06:30;;;;;;;9.87;8.00;;;;;;;7.68;44.78;98106.31;6323701;28;20190;-55
2024/03/19 13:09:31;;;;;;;8.93;7.13;;;;;;;7.98;44.22;98105.75;6316467;28;20284;-54
2024/03/19 13:12:32;;;;;;;8.80;7.07;;;;;;;8.28;43.36;98104.09;6316381;28;20239;-53
2024/03/19 13:15:33;;;;;;;9.40;7.60;;;;;;;8.42;42.78;98096.88;6300629;28;20680;-53
2024/03/19 13:18:35;;;;;;;8.87;7.73;;;;;;;8.54;42.88;98099.63;6309019;28;20667;-54
2024/03/19 13:21:36;;;;;;;8.83;7.17;;;;;;;8.41;41.45;98103.19;6306366;28;20277;-53
2024/03/19 13:24:38;;;;;;;10.23;7.50;;;;;;;8.23;40.96;98098.63;6298240;28;20639;-54
2024/03/19 13:27:39;;;;;;;8.17;6.73;;;;;;;8.30;41.97;98101.22;6300391;28;20193;-53
2024/03/19 13:30:40;;;;;;;10.93;7.23;;;;;;;8.41;41.92;98102.38;6317645;28;20182;-57
2024/03/19 13:33:41;;;;;;;8.43;6.60;;;;;;;8.50;39.71;98099.25;6300127;28;20227;-54
2024/03/19 13:36:43;;;;;;;7.37;5.90;;;;;;;8.51;39.99;98092.88;6318442;28;20198;-54
2024/03/19 13:39:44;;;;;;;7.27;6.30;;;;;;;8.65;38.17;98093.59;6286215;28;20316;-54
2024/03/19 13:42:45;;;;;;;8.37;6.03;;;;;;;8.78;39.40;98112.06;6320910;28;20193;-55
2024/03/19 13:45:46;;;;;;;8.03;6.00;;;;;;;8.56;37.54;98105.53;6316766;28;20321;-53
2024/03/19 13:48:47;;;;;;;7.07;5.80;;;;;;;8.31;38.74;98104.69;6299284;28;20290;-54
2024/03/19 13:51:48;;;;;;;7.70;6.30;;;;;;;8.30;38.74;98087.94;6303359;28;20208;-53
2024/03/19 13:54:49;;;;;;;8.13;5.87;;;;;;;8.40;38.03;98108.72;6304202;28;20649;-52
2024/03/19 13:57:50;;;;;;;8.07;6.83;;;;;;;8.46;38.89;98102.53;6317463;28;20194;-55
2024/03/19 14:00:56;;;;;;;7.50;6.07;;;;;;;8.46;39.29;98097.22;6316330;28;20657;-55
2024/03/19 14:03:58;;;;;;;9.77;6.23;;;;;;;8.48;39.03;98097.84;6323025;28;20205;-54
2024/03/19 14:07:00;;;;;;;7.80;5.70;;;;;;;8.61;39.32;98104.88;6325935;28;20666;-54
2024/03/19 14:10:04;;;;;;;8.33;6.23;;;;;;;8.56;38.02;98102.88;6298721;28;20601;-54